Time;durP1;ratioP1;P1;durP2;ratioP2;P2;SDS_P1;SDS_P2;PMS_P1;PMS_P2;Temp;Humidity;BMP_temperature;BMP_pressure;BME280_temperature;BME280_humidity;BME280_pressure;Samples;Min_cycle;Max_cycle;Signal;HPM_P1;HPM_P2
2022/01/25 00:08:38;;;;;;;21.00;15.87;;;;;;;-1.27;100.00;101767.50;5016715;28;20228;-61
2022/01/25 00:24:18;;;;;;;23.40;15.57;;;;;;;-1.33;100.00;101761.50;4993093;28;20330;-60
2022/01/25 00:27:37;;;;;;;20.37;15.30;;;;;;;-1.47;100.00;101763.69;4975814;28;20185;-59
2022/01/25 00:30:21;;;;;;;20.77;14.97;;;;;;;-1.44;100.00;101772.16;4971324;28;20202;-60
2022/01/25 00:32:44;;;;;;;19.33;14.77;;;;;;;-1.47;100.00;101767.91;4975996;28;20252;-60
2022/01/25 00:35:09;;;;;;;22.50;16.20;;;;;;;-1.46;100.00;101772.13;4999468;28;20745;-60
2022/01/25 00:37:35;;;;;;;22.70;15.97;;;;;;;-1.49;100.00;101772.06;4995038;28;20205;-59
2022/01/25 00:40:00;;;;;;;21.20;15.57;;;;;;;-1.57;100.00;101773.56;5010564;28;20657;-60
2022/01/25 00:42:25;;;;;;;22.00;15.70;;;;;;;-1.64;100.00;101781.00;5012130;28;20221;-59
2022/01/25 00:44:51;;;;;;;26.10;17.40;;;;;;;-1.62;100.00;101776.00;5006511;28;20197;-60
2022/01/25 00:47:16;;;;;;;22.43;16.40;;;;;;;-1.54;100.00;101779.56;4996361;28;20785;-59
2022/01/25 00:49:44;;;;;;;22.53;16.03;;;;;;;-1.51;100.00;101778.75;4990699;28;20298;-58
2022/01/25 00:54:45;;;;;;;23.03;16.67;;;;;;;-1.62;100.00;101776.81;5007408;28;20207;-60
2022/01/25 00:57:10;;;;;;;19.23;15.83;;;;;;;-1.65;100.00;101779.28;5007843;28;20207;-59
2022/01/25 00:59:35;;;;;;;20.70;16.10;;;;;;;-1.65;100.00;101778.44;5009870;28;20189;-60
2022/01/25 01:02:04;;;;;;;22.47;16.43;;;;;;;-1.63;100.00;101767.53;5007212;28;20335;-62
2022/01/25 01:04:31;;;;;;;21.53;15.67;;;;;;;-1.68;100.00;101774.16;4993721;28;20181;-60
2022/01/25 01:06:57;;;;;;;21.67;15.73;;;;;;;-1.68;100.00;101763.22;4994732;28;20236;-59
2022/01/25 01:09:23;;;;;;;20.37;15.37;;;;;;;-1.60;100.00;101760.88;4993795;28;20596;-60
2022/01/25 01:12:01;;;;;;;20.90;15.80;;;;;;;-1.74;100.00;101758.88;5011223;28;20243;-60
2022/01/25 01:14:50;;;;;;;22.73;16.10;;;;;;;-1.71;100.00;101755.56;5012968;28;20184;-60
2022/01/25 01:29:03;;;;;;;20.40;15.53;;;;;;;-1.80;100.00;101761.25;4998235;28;20205;-60
2022/01/25 01:31:13;;;;;;;25.07;17.40;;;;;;;-1.82;100.00;101766.28;4990209;28;20712;-59
2022/01/25 01:34:05;;;;;;;21.83;16.80;;;;;;;-1.78;100.00;101759.63;5018932;28;20445;-59
2022/01/25 01:39:41;;;;;;;23.50;17.77;;;;;;;-1.79;100.00;101757.94;5012250;28;20584;-60
2022/01/25 01:44:54;;;;;;;24.03;16.50;;;;;;;-1.81;100.00;101759.56;5012159;28;20183;-59
2022/01/25 01:47:25;;;;;;;25.13;17.50;;;;;;;-1.88;100.00;101767.81;5011453;28;20451;-60
2022/01/25 01:49:51;;;;;;;24.10;16.90;;;;;;;-1.87;100.00;101756.88;5019949;28;20914;-60
2022/01/25 01:52:16;;;;;;;21.30;16.73;;;;;;;-1.88;100.00;101761.09;5019933;28;20469;-59
2022/01/25 01:54:41;;;;;;;23.47;18.10;;;;;;;-1.90;100.00;101760.19;5011800;28;20657;-60
2022/01/25 01:57:07;;;;;;;22.97;17.27;;;;;;;-1.92;100.00;101761.84;5012355;28;20200;-60
2022/01/25 01:59:33;;;;;;;25.90;17.13;;;;;;;-1.91;100.00;101761.03;5012033;28;20189;-59
2022/01/25 02:01:59;;;;;;;22.63;16.83;;;;;;;-1.93;100.00;101760.13;5016418;28;20246;-59
2022/01/25 02:04:24;;;;;;;19.13;15.50;;;;;;;-1.97;100.00;101764.25;5012075;28;20191;-60
2022/01/25 02:06:50;;;;;;;21.67;17.00;;;;;;;-1.93;100.00;101759.25;5030799;28;20555;-60
2022/01/25 02:09:15;;;;;;;22.70;16.30;;;;;;;-1.90;100.00;101756.84;5019865;28;20191;-60
2022/01/25 02:11:41;;;;;;;22.23;17.83;;;;;;;-1.90;100.00;101752.63;5014219;28;20239;-60
2022/01/25 02:14:09;;;;;;;22.60;16.17;;;;;;;-1.87;100.00;101750.19;5012932;28;20187;-60
2022/01/25 02:16:56;;;;;;;24.00;17.10;;;;;;;-1.90;100.00;101754.31;5011388;28;20211;-60
2022/01/25 02:22:31;;;;;;;22.00;16.20;;;;;;;-2.02;100.00;101745.63;5021616;28;20483;-60
2022/01/25 02:24:58;;;;;;;23.17;16.83;;;;;;;-2.03;100.00;101743.94;5023827;28;20747;-60
2022/01/25 02:27:23;;;;;;;24.50;17.60;;;;;;;-2.01;100.00;101739.78;5025848;28;20428;-60
2022/01/25 02:29:49;;;;;;;25.80;17.47;;;;;;;-1.98;100.00;101742.38;5011439;28;20442;-59
2022/01/25 02:32:14;;;;;;;22.90;18.23;;;;;;;-1.96;100.00;101739.88;5016397;28;20286;-60
2022/01/25 02:34:40;;;;;;;25.50;18.70;;;;;;;-1.96;100.00;101735.69;5011110;28;20187;-61
2022/01/25 02:37:08;;;;;;;25.77;18.37;;;;;;;-2.01;100.00;101732.22;5011589;28;20715;-60
2022/01/25 02:39:37;;;;;;;28.67;18.80;;;;;;;-2.01;100.00;101741.44;5011302;28;20179;-61
2022/01/25 02:42:03;;;;;;;27.10;18.67;;;;;;;-1.99;100.00;101742.34;4999858;28;20231;-61
2022/01/25 02:44:29;;;;;;;23.57;18.00;;;;;;;-2.01;100.00;101739.78;4991718;28;20186;-61
2022/01/25 02:49:35;;;;;;;25.13;18.47;;;;;;;-2.08;100.00;101744.63;4991525;28;20193;-61
2022/01/25 02:52:03;;;;;;;22.90;17.87;;;;;;;-2.04;100.00;101741.38;4986649;28;20239;-61
2022/01/25 02:54:29;;;;;;;25.50;18.40;;;;;;;-2.08;100.00;101742.09;4992958;28;20560;-60
2022/01/25 02:56:56;;;;;;;24.43;19.00;;;;;;;-2.07;100.00;101734.59;5001604;28;20209;-61
2022/01/25 02:59:21;;;;;;;26.90;19.57;;;;;;;-2.05;100.00;101735.47;4991717;28;20424;-61
2022/01/25 03:01:48;;;;;;;29.53;19.30;;;;;;;-2.19;100.00;101736.81;4973055;28;20491;-61
2022/01/25 03:04:18;;;;;;;29.60;20.73;;;;;;;-2.19;100.00;101736.81;4987725;28;20231;-61
2022/01/25 03:06:43;;;;;;;27.93;18.50;;;;;;;-2.19;100.00;101734.31;4991138;28;20457;-62
2022/01/25 03:09:09;;;;;;;29.77;19.50;;;;;;;-2.17;100.00;101733.53;4982495;28;20194;-61
2022/01/25 03:11:35;;;;;;;23.77;18.27;;;;;;;-2.16;100.00;101731.84;4961550;28;20248;-61
2022/01/25 03:14:04;;;;;;;25.43;18.93;;;;;;;-2.19;100.00;101731.78;4972521;28;20627;-61
2022/01/25 03:16:39;;;;;;;22.87;17.53;;;;;;;-2.25;100.00;101729.09;4977556;28;20596;-61
2022/01/25 03:21:51;;;;;;;26.53;19.40;;;;;;;-2.22;100.00;101731.69;4965566;28;20621;-60
2022/01/25 03:24:17;;;;;;;26.03;19.40;;;;;;;-2.24;100.00;101726.63;4971716;28;20178;-59
2022/01/25 03:26:43;;;;;;;24.00;17.93;;;;;;;-2.27;100.00;101729.91;4981039;28;20274;-62
2022/01/25 03:29:08;;;;;;;27.40;19.20;;;;;;;-2.24;100.00;101733.34;4986906;28;21035;-60
2022/01/25 03:31:33;;;;;;;28.70;19.83;;;;;;;-2.23;100.00;101725.81;4957396;28;20228;-60
2022/01/25 03:33:59;;;;;;;29.40;19.00;;;;;;;-2.19;100.00;101730.09;4971996;28;20174;-61
2022/01/25 03:36:25;;;;;;;25.50;18.43;;;;;;;-2.25;100.00;101724.91;4971887;28;20238;-61
2022/01/25 03:38:50;;;;;;;25.20;17.90;;;;;;;-2.25;100.00;101727.44;4972052;28;20211;-61
2022/01/25 03:41:16;;;;;;;27.60;19.93;;;;;;;-2.23;100.00;101732.50;4969867;28;20230;-60
2022/01/25 03:43:44;;;;;;;23.63;17.67;;;;;;;-2.24;100.00;101731.66;4976652;28;20197;-60
2022/01/25 03:46:19;;;;;;;24.63;18.10;;;;;;;-2.27;100.00;101731.56;4988428;28;20431;-61
2022/01/25 03:51:28;;;;;;;24.43;18.30;;;;;;;-2.27;100.00;101724.00;4978577;28;20494;-61
2022/01/25 03:53:53;;;;;;;28.77;19.77;;;;;;;-2.24;100.00;101733.34;4996915;28;20415;-60
2022/01/25 03:56:21;;;;;;;28.60;20.57;;;;;;;-2.17;100.00;101736.03;4989981;28;20201;-62
2022/01/25 03:58:46;;;;;;;28.33;20.50;;;;;;;-2.20;100.00;101730.91;4994580;28;20550;-60
2022/01/25 04:01:11;;;;;;;32.23;21.33;;;;;;;-2.27;100.00;101732.44;4954655;28;20478;-60
2022/01/25 04:03:43;;;;;;;29.37;19.57;;;;;;;-2.27;100.00;101729.91;4970718;28;20209;-61
2022/01/25 04:06:10;;;;;;;31.87;19.97;;;;;;;-2.30;100.00;101724.78;4972416;28;20191;-60
2022/01/25 04:08:36;;;;;;;28.97;21.23;;;;;;;-2.33;100.00;101718.81;4971267;28;20417;-60
2022/01/25 04:11:01;;;;;;;25.73;19.30;;;;;;;-2.31;100.00;101718.06;4995233;28;20593;-59
2022/01/25 04:13:27;;;;;;;28.47;20.63;;;;;;;-2.35;100.00;101711.22;5003772;28;20204;-61
2022/01/25 04:15:55;;;;;;;26.83;19.90;;;;;;;-2.34;100.00;101710.41;4987714;28;20234;-59
2022/01/25 04:20:58;;;;;;;28.90;20.10;;;;;;;-2.38;100.00;101717.84;5005291;28;20477;-60
2022/01/25 04:26:07;;;;;;;25.70;17.97;;;;;;;-2.43;100.00;101712.72;4996375;28;20549;-60
2022/01/25 04:28:33;;;;;;;31.73;18.77;;;;;;;-2.46;100.00;101715.16;4995211;28;20435;-61
2022/01/25 04:30:58;;;;;;;29.17;19.13;;;;;;;-2.46;100.00;101715.16;4978672;28;20249;-59
2022/01/25 04:33:27;;;;;;;29.00;19.77;;;;;;;-2.52;100.00;101709.94;4999299;28;20187;-61
2022/01/25 04:36:22;;;;;;;26.50;19.33;;;;;;;-2.47;100.00;101711.78;4990625;28;20620;-60
2022/01/25 04:49:41;;;;;;;26.20;18.83;;;;;;;-2.52;100.00;101713.31;5011348;28;20467;-61
2022/01/25 04:52:11;;;;;;;27.23;19.50;;;;;;;-2.52;100.00;101710.78;5007530;28;20488;-60
2022/01/25 04:55:04;;;;;;;27.10;18.63;;;;;;;-2.52;100.00;101712.47;5007699;28;20176;-61
2022/01/25 04:57:45;;;;;;;26.87;18.73;;;;;;;-2.57;100.00;101717.38;4993942;28;20465;-60
2022/01/25 05:03:08;;;;;;;31.27;20.20;;;;;;;-2.59;100.00;101729.09;5025163;28;20461;-60
2022/01/25 05:05:39;;;;;;;29.50;18.93;;;;;;;-2.62;100.00;101726.50;4999109;28;20444;-60
2022/01/25 05:08:17;;;;;;;31.50;20.80;;;;;;;-2.67;100.00;101725.53;4998581;28;20553;-59
2022/01/25 05:11:02;;;;;;;27.60;19.80;;;;;;;-2.64;100.00;101723.09;5008073;28;20246;-62
2022/01/25 05:18:44;;;;;;;29.37;21.53;;;;;;;-2.65;100.00;101729.78;5003888;28;20429;-60
2022/01/25 05:23:54;;;;;;;25.00;18.10;;;;;;;-2.64;100.00;101720.59;5010413;28;20433;-60
2022/01/25 05:26:20;;;;;;;26.17;19.87;;;;;;;-2.65;100.00;101718.88;4998240;28;20787;-60
2022/01/25 05:28:46;;;;;;;29.63;20.03;;;;;;;-2.67;100.00;101720.50;5011136;28;20534;-60
2022/01/25 05:31:11;;;;;;;25.43;19.73;;;;;;;-2.70;100.00;101721.25;5010110;28;20233;-60
2022/01/25 05:33:36;;;;;;;27.23;20.00;;;;;;;-2.67;100.00;101716.28;4999449;28;20263;-60
2022/01/25 05:36:02;;;;;;;27.20;19.93;;;;;;;-2.69;100.00;101729.66;5004318;28;20233;-61
2022/01/25 05:38:27;;;;;;;25.13;18.73;;;;;;;-2.65;100.00;101723.91;4998392;28;20175;-59
2022/01/25 05:40:59;;;;;;;26.30;19.43;;;;;;;-2.65;100.00;101723.91;5008723;28;20233;-60
2022/01/25 05:46:15;;;;;;;23.77;18.53;;;;;;;-2.65;100.00;101721.38;5001742;28;20769;-59
2022/01/25 05:48:40;;;;;;;26.13;18.93;;;;;;;-2.62;100.00;101724.84;5000799;28;20819;-61
2022/01/25 05:51:06;;;;;;;26.77;18.60;;;;;;;-2.47;100.00;101731.06;5010054;28;20488;-60
2022/01/25 05:53:31;;;;;;;30.90;19.67;;;;;;;-2.46;100.00;101728.59;5018203;28;20201;-60
2022/01/25 05:55:57;;;;;;;31.00;20.97;;;;;;;-2.44;100.00;101731.16;5023937;28;20264;-59
2022/01/25 05:58:22;;;;;;;27.90;21.07;;;;;;;-2.44;100.00;101729.50;5015717;28;20250;-61
2022/01/25 06:00:47;;;;;;;29.50;20.83;;;;;;;-2.40;100.00;101724.53;5006759;28;20387;-60
2022/01/25 06:03:13;;;;;;;26.10;18.73;;;;;;;-2.31;100.00;101730.66;5020591;28;20699;-61
2022/01/25 06:05:38;;;;;;;27.87;19.20;;;;;;;-2.25;100.00;101726.59;5006026;28;20197;-60
2022/01/25 06:08:04;;;;;;;29.17;21.07;;;;;;;-2.21;100.00;101730.88;5006117;28;20271;-60
2022/01/25 06:10:30;;;;;;;30.60;20.53;;;;;;;-2.19;100.00;101734.31;5005524;28;20679;-60
2022/01/25 06:12:55;;;;;;;27.87;21.43;;;;;;;-2.04;100.00;101733.81;5011572;28;20235;-60
2022/01/25 06:15:21;;;;;;;32.20;22.10;;;;;;;-2.20;100.00;101719.97;5004115;28;20211;-60
2022/01/25 06:17:46;;;;;;;32.07;22.30;;;;;;;-2.42;100.00;101721.97;4993606;28;20196;-60
2022/01/25 06:20:12;;;;;;;27.20;21.00;;;;;;;-2.42;100.00;101718.59;5002769;28;20275;-60
2022/01/25 06:22:38;;;;;;;31.57;21.77;;;;;;;-2.54;100.00;101721.66;5012815;28;20872;-61
2022/01/25 06:25:04;;;;;;;31.27;20.77;;;;;;;-2.41;100.00;101715.28;5004996;28;20296;-61
2022/01/25 06:27:30;;;;;;;30.77;20.93;;;;;;;-2.17;100.00;101713.34;4993495;28;20509;-60
2022/01/25 06:29:55;;;;;;;27.53;20.13;;;;;;;-2.08;100.00;101715.22;4992304;28;20532;-62
2022/01/25 06:32:21;;;;;;;25.90;19.40;;;;;;;-1.85;100.00;101713.25;5010106;28;20582;-60
2022/01/25 06:34:46;;;;;;;28.07;19.57;;;;;;;-1.78;100.00;101704.13;5011320;28;20204;-61
2022/01/25 06:37:13;;;;;;;26.40;19.80;;;;;;;-1.92;100.00;101710.53;5011546;28;20216;-61
2022/01/25 06:39:41;;;;;;;28.97;20.00;;;;;;;-1.93;100.00;101717.25;5011554;28;20192;-60
2022/01/25 06:42:08;;;;;;;28.47;19.27;;;;;;;-1.58;100.00;101703.72;4999210;28;20602;-59
2022/01/25 06:44:35;;;;;;;25.40;18.80;;;;;;;-1.32;100.00;101710.16;4986272;28;20189;-60
2022/01/25 06:47:02;;;;;;;26.93;19.10;;;;;;;-1.16;100.00;101705.44;4991140;28;20175;-60
2022/01/25 06:49:28;;;;;;;26.93;20.33;;;;;;;-1.01;100.00;101710.75;4990997;28;20186;-58
2022/01/25 06:51:53;;;;;;;25.03;19.40;;;;;;;-0.95;100.00;101715.09;4998514;28;20290;-59
2022/01/25 06:54:19;;;;;;;27.37;20.10;;;;;;;-1.04;100.00;101708.19;5010752;28;20229;-61
2022/01/25 06:56:44;;;;;;;26.27;19.93;;;;;;;-0.85;100.00;101708.53;5009841;28;20224;-59
2022/01/25 06:59:10;;;;;;;23.30;18.80;;;;;;;-1.02;100.00;101698.09;5009335;28;20197;-58
2022/01/25 07:01:35;;;;;;;29.30;19.33;;;;;;;-1.22;100.00;101703.63;5001314;28;20309;-60
2022/01/25 07:04:01;;;;;;;26.90;19.40;;;;;;;-1.20;100.00;101701.16;5011211;28;20192;-63
2022/01/25 07:06:26;;;;;;;23.17;18.50;;;;;;;-1.06;100.00;101707.31;5009805;28;20202;-60
2022/01/25 07:08:52;;;;;;;30.03;20.77;;;;;;;-1.19;100.00;101706.22;5007620;28;20204;-61
2022/01/25 07:11:17;;;;;;;28.27;20.63;;;;;;;-1.10;100.00;101705.53;4999803;28;20222;-59
2022/01/25 07:13:43;;;;;;;27.23;20.33;;;;;;;-0.77;100.00;101707.03;5014524;28;20284;-60
2022/01/25 07:16:08;;;;;;;27.33;20.80;;;;;;;-0.87;100.00;101710.19;5013936;28;20206;-59
2022/01/25 07:18:34;;;;;;;27.07;21.17;;;;;;;-0.74;100.00;101708.75;5007398;28;20183;-60
2022/01/25 07:20:59;;;;;;;27.83;21.20;;;;;;;-0.83;100.00;101705.22;5005247;28;20709;-61
2022/01/25 07:23:25;;;;;;;30.70;23.23;;;;;;;-0.73;100.00;101708.75;5013427;28;20182;-60
2022/01/25 07:25:50;;;;;;;32.40;24.57;;;;;;;-0.69;100.00;101704.63;5011568;28;20518;-59
2022/01/25 07:28:15;;;;;;;37.23;24.87;;;;;;;-0.73;100.00;101715.47;5012289;28;20187;-60
2022/01/25 07:30:41;;;;;;;33.20;24.23;;;;;;;-0.66;100.00;101708.06;5008973;28;20771;-61
2022/01/25 07:33:07;;;;;;;31.47;24.50;;;;;;;-0.49;100.00;101710.84;5010680;28;20182;-59
2022/01/25 07:35:37;;;;;;;34.73;24.13;;;;;;;-0.29;100.00;101702.75;5015118;28;20597;-62
2022/01/25 07:38:03;;;;;;;32.43;23.10;;;;;;;-0.27;100.00;101715.41;5007984;28;20546;-59
2022/01/25 07:40:30;;;;;;;30.83;21.97;;;;;;;-0.26;100.00;101712.06;5005595;28;20234;-61
2022/01/25 07:42:55;;;;;;;30.60;22.57;;;;;;;-0.05;100.00;101719.16;5013321;28;20177;-59
2022/01/25 07:45:21;;;;;;;33.23;24.30;;;;;;;0.26;100.00;101725.53;5010731;28;20202;-60
2022/01/25 07:47:47;;;;;;;31.53;24.00;;;;;;;0.63;100.00;101720.09;5004003;28;20244;-58
2022/01/25 07:50:14;;;;;;;33.75;30.20;;;;;;;1.07;100.00;101712.16;4997074;28;20536;-59
2022/01/25 07:52:40;;;;;;;29.30;25.03;;;;;;;0.87;100.00;101713.63;5002098;28;20238;-60
2022/01/25 07:55:06;;;;;;;30.30;23.73;;;;;;;0.91;100.00;101707.78;5012350;28;20583;-60
2022/01/25 07:57:32;;;;;;;30.80;22.97;;;;;;;0.89;100.00;101704.38;5006798;28;20218;-59
2022/01/25 07:59:58;;;;;;;32.13;23.03;;;;;;;0.79;100.00;101708.47;5017787;28;20189;-60
2022/01/25 08:02:24;;;;;;;29.87;22.23;;;;;;;1.01;100.00;101709.56;4986628;28;20229;-61
2022/01/25 08:04:50;;;;;;;26.60;21.43;;;;;;;1.09;100.00;101707.97;4974234;28;20276;-60
2022/01/25 08:07:16;;;;;;;26.03;21.57;;;;;;;1.17;100.00;101713.13;5004262;28;20633;-59
2022/01/25 08:09:42;;;;;;;26.77;20.73;;;;;;;1.34;100.00;101714.97;4999625;28;20234;-60
2022/01/25 08:12:09;;;;;;;23.87;20.43;;;;;;;1.42;100.00;101716.72;4996645;28;20346;-60
2022/01/25 08:14:34;;;;;;;28.30;21.00;;;;;;;1.47;100.00;101713.41;4990419;28;20230;-59
2022/01/25 08:17:00;;;;;;;24.90;20.77;;;;;;;1.56;100.00;101708.41;5011219;28;20227;-59
2022/01/25 08:19:25;;;;;;;26.07;20.27;;;;;;;1.67;100.00;101711.88;5008166;28;20261;-61
2022/01/25 08:21:50;;;;;;;28.57;24.57;;;;;;;2.18;100.00;101717.31;5006943;28;20454;-59
2022/01/25 08:24:20;;;;;;;30.63;23.07;;;;;;;2.23;100.00;101722.44;5012195;28;20198;-60
2022/01/25 08:26:46;;;;;;;28.30;20.30;;;;;;;2.29;100.00;101726.72;5016307;28;20211;-59
2022/01/25 08:29:11;;;;;;;27.43;20.23;;;;;;;2.32;100.00;101722.50;5008352;28;20183;-59
2022/01/25 08:31:38;;;;;;;23.83;20.43;;;;;;;2.20;100.00;101730.88;4982097;28;20227;-60
2022/01/25 08:34:04;;;;;;;25.37;21.60;;;;;;;2.06;100.00;101733.34;4993604;28;20650;-60
2022/01/25 08:36:30;;;;;;;27.57;21.87;;;;;;;1.55;100.00;101737.13;4997010;28;20307;-59
2022/01/25 08:38:56;;;;;;;27.20;22.13;;;;;;;1.71;100.00;101733.91;5003809;28;20474;-60
2022/01/25 08:41:22;;;;;;;27.03;21.37;;;;;;;2.08;100.00;101734.22;4989239;28;20235;-60
2022/01/25 08:43:50;;;;;;;26.47;19.50;;;;;;;1.92;100.00;101732.38;4999143;28;20183;-60
2022/01/25 08:46:15;;;;;;;25.70;20.40;;;;;;;2.22;100.00;101736.84;4989694;28;20283;-60
2022/01/25 08:48:41;;;;;;;27.07;20.73;;;;;;;2.40;100.00;101741.16;4998537;28;20327;-60
2022/01/25 08:51:06;;;;;;;27.40;19.27;;;;;;;2.35;100.00;101742.00;4991317;28;20228;-59
2022/01/25 08:53:32;;;;;;;27.23;19.37;;;;;;;2.38;100.00;101747.94;5016746;28;20711;-59
2022/01/25 08:55:58;;;;;;;25.40;19.90;;;;;;;2.42;100.00;101736.09;4992803;28;20191;-60
2022/01/25 08:58:23;;;;;;;25.30;20.47;;;;;;;2.34;100.00;101738.56;4990398;28;20614;-62
2022/01/25 09:00:49;;;;;;;24.10;20.30;;;;;;;2.51;100.00;101742.94;4985102;28;20336;-60
2022/01/25 09:03:14;;;;;;;23.30;18.63;;;;;;;2.64;100.00;101742.16;4985846;28;20182;-59
2022/01/25 09:05:40;;;;;;;24.17;19.50;;;;;;;2.84;100.00;101749.00;4990137;28;20621;-60
2022/01/25 09:08:06;;;;;;;29.07;20.33;;;;;;;2.93;99.71;101748.19;5004770;28;20603;-60
2022/01/25 09:10:32;;;;;;;26.40;19.97;;;;;;;3.04;98.51;101747.38;4983833;28;20236;-60
2022/01/25 09:12:57;;;;;;;23.70;20.07;;;;;;;3.05;97.95;101738.91;5011054;28;20677;-59
2022/01/25 09:15:23;;;;;;;24.57;20.53;;;;;;;2.72;97.69;101758.25;4993775;28;20250;-59
2022/01/25 09:17:48;;;;;;;28.23;21.10;;;;;;;2.96;98.45;101759.22;4989928;28;20214;-61
2022/01/25 09:20:14;;;;;;;26.47;20.13;;;;;;;3.11;97.79;101760.13;4981279;28;20185;-63
2022/01/25 09:22:39;;;;;;;26.17;20.77;;;;;;;2.91;97.34;101753.25;5008799;28;20232;-59
2022/01/25 09:25:05;;;;;;;23.77;19.00;;;;;;;2.88;98.12;101763.44;5001068;28;20714;-61
2022/01/25 09:27:31;;;;;;;28.97;20.47;;;;;;;3.06;98.41;101762.63;4993457;28;20171;-62
2022/01/25 09:29:56;;;;;;;24.20;19.77;;;;;;;3.33;98.10;101756.78;4993372;28;20532;-60
2022/01/25 09:32:21;;;;;;;24.03;18.03;;;;;;;3.53;97.07;101751.72;4997680;28;20223;-60
2022/01/25 09:34:47;;;;;;;22.93;18.77;;;;;;;3.49;96.32;101750.03;4996858;28;20240;-63
2022/01/25 09:37:13;;;;;;;22.97;19.43;;;;;;;3.55;96.14;101746.66;4998309;28;20206;-62
2022/01/25 09:39:38;;;;;;;23.53;18.23;;;;;;;3.69;95.09;101751.75;5007926;28;20909;-63
2022/01/25 09:42:08;;;;;;;22.67;17.83;;;;;;;3.72;94.20;101747.50;4998439;28;20233;-60
2022/01/25 09:44:36;;;;;;;23.43;17.60;;;;;;;3.88;93.40;101750.03;4992780;28;20187;-60
2022/01/25 09:47:02;;;;;;;21.10;18.03;;;;;;;3.96;92.46;101753.44;4993193;28;20262;-58
2022/01/25 09:49:28;;;;;;;21.40;17.83;;;;;;;3.66;91.44;101751.72;4992422;28;20722;-60
2022/01/25 09:51:55;;;;;;;25.77;18.83;;;;;;;3.37;93.32;101757.63;5007255;28;20687;-61
2022/01/25 09:54:20;;;;;;;26.40;18.43;;;;;;;3.46;94.49;101754.25;4974364;28;20255;-60
2022/01/25 09:56:46;;;;;;;22.70;19.37;;;;;;;3.68;94.43;101755.13;4989111;28;20309;-60
2022/01/25 09:59:11;;;;;;;23.83;18.20;;;;;;;3.87;93.31;101759.38;4992598;28;20266;-60
2022/01/25 10:01:37;;;;;;;22.80;18.27;;;;;;;3.88;93.12;101761.09;5004692;28;20773;-60
2022/01/25 10:04:05;;;;;;;22.27;19.00;;;;;;;4.11;92.13;101767.03;4998357;28;20474;-58
2022/01/25 10:06:34;;;;;;;25.67;18.67;;;;;;;3.68;91.82;101762.78;4992827;28;20508;-61
2022/01/25 10:09:00;;;;;;;20.97;18.03;;;;;;;3.65;92.96;101765.31;4992756;28;20175;-60
2022/01/25 10:11:25;;;;;;;26.30;19.43;;;;;;;3.66;93.66;101765.31;4996245;28;20257;-60
2022/01/25 10:13:57;;;;;;;23.33;19.90;;;;;;;3.59;93.79;101766.16;4999969;28;20652;-60
2022/01/25 10:16:31;;;;;;;24.50;20.13;;;;;;;3.50;93.96;101769.53;5000346;28;20207;-60
2022/01/25 10:19:10;;;;;;;27.70;17.83;;;;;;;3.76;94.05;101762.78;4991962;28;20175;-60
2022/01/25 10:21:39;;;;;;;27.63;19.07;;;;;;;3.82;93.26;101765.31;4994575;28;20356;-60
2022/01/25 10:24:12;;;;;;;21.03;18.83;;;;;;;4.07;92.40;101762.75;4998155;28;20672;-61
2022/01/25 10:26:40;;;;;;;22.63;18.20;;;;;;;4.20;90.82;101764.47;4994400;28;20221;-60
2022/01/25 10:29:08;;;;;;;26.97;20.40;;;;;;;3.76;90.15;101760.22;4992156;28;20191;-60
2022/01/25 10:31:45;;;;;;;25.30;20.10;;;;;;;3.40;92.25;101752.56;4998012;28;20234;-60
2022/01/25 10:34:14;;;;;;;21.67;17.97;;;;;;;3.15;95.01;101757.59;5004866;28;20275;-60
2022/01/25 10:36:46;;;;;;;27.30;20.13;;;;;;;3.27;96.07;101754.22;4991672;28;20556;-60
2022/01/25 10:39:27;;;;;;;29.27;20.93;;;;;;;3.51;95.91;101750.88;4995050;28;20293;-61
2022/01/25 10:42:04;;;;;;;25.90;21.10;;;;;;;3.35;94.73;101757.63;4995451;28;20225;-59
2022/01/25 10:44:50;;;;;;;25.63;19.63;;;;;;;3.55;94.83;101759.38;4991757;28;20647;-60
2022/01/25 10:47:17;;;;;;;29.33;19.87;;;;;;;3.51;94.86;101762.75;5003088;28;20167;-60
2022/01/25 10:49:48;;;;;;;27.47;20.20;;;;;;;3.80;93.48;101759.41;4992784;28;20258;-61
2022/01/25 10:52:23;;;;;;;23.50;20.00;;;;;;;3.70;93.42;101759.38;5007227;28;20633;-60
2022/01/25 10:54:48;;;;;;;25.73;20.90;;;;;;;4.02;92.58;101762.78;5006247;28;20380;-60
2022/01/25 10:57:19;;;;;;;29.00;20.13;;;;;;;4.06;90.97;101764.47;4994815;28;20207;-60
2022/01/25 11:00:00;;;;;;;26.10;20.70;;;;;;;4.22;90.22;101762.75;4993273;28;20713;-60
2022/01/25 11:02:26;;;;;;;25.50;20.47;;;;;;;4.43;89.08;101763.56;4998715;28;20302;-60
2022/01/25 11:05:04;;;;;;;23.70;19.43;;;;;;;4.03;88.80;101756.81;5000435;28;20214;-60
2022/01/25 11:07:37;;;;;;;23.17;19.63;;;;;;;4.09;89.94;101756.81;4996156;28;20167;-60
2022/01/25 11:10:04;;;;;;;24.07;19.13;;;;;;;4.02;88.96;101757.69;4989421;28;20179;-60
2022/01/25 11:12:36;;;;;;;26.30;23.17;;;;;;;4.17;87.24;101755.13;5009068;28;20485;-60
2022/01/25 11:15:02;;;;;;;25.37;21.27;;;;;;;3.78;89.28;101745.81;4994358;28;20203;-60
2022/01/25 11:17:30;;;;;;;23.00;19.37;;;;;;;3.88;90.51;101748.38;4998376;28;20203;-60
2022/01/25 11:19:57;;;;;;;24.70;19.70;;;;;;;3.98;90.77;101745.78;4995404;28;20183;-61
2022/01/25 11:22:23;;;;;;;24.90;20.70;;;;;;;3.85;89.99;101744.97;5002429;28;20222;-61
2022/01/25 11:24:51;;;;;;;25.83;19.93;;;;;;;3.84;89.69;101744.09;4991347;28;20231;-59
2022/01/25 11:27:18;;;;;;;22.20;18.53;;;;;;;3.93;89.70;101748.38;4990579;28;20266;-59
2022/01/25 11:29:45;;;;;;;22.00;17.80;;;;;;;3.92;89.80;101739.03;4990846;28;20197;-60
2022/01/25 11:32:15;;;;;;;22.60;17.47;;;;;;;4.06;89.90;101744.09;4981288;28;20684;-60
2022/01/25 11:34:44;;;;;;;22.90;17.73;;;;;;;3.81;89.18;101735.66;4996043;28;20246;-60
2022/01/25 11:37:10;;;;;;;22.50;17.00;;;;;;;3.24;90.68;101736.41;4992953;28;20606;-59
2022/01/25 11:39:40;;;;;;;32.70;24.17;;;;;;;3.36;92.84;101733.03;4993511;28;20183;-59
2022/01/25 11:42:07;;;;;;;22.17;17.87;;;;;;;3.43;93.59;101733.91;4992526;28;20317;-60
2022/01/25 11:44:34;;;;;;;24.97;19.30;;;;;;;2.97;95.32;101732.13;4999306;28;20195;-59
2022/01/25 11:47:12;;;;;;;24.57;20.53;;;;;;;3.04;96.86;101721.97;4992499;28;20191;-59
2022/01/25 11:49:57;;;;;;;23.63;19.10;;;;;;;3.03;97.24;101720.25;4991725;28;20538;-60
2022/01/25 11:52:25;;;;;;;24.13;20.10;;;;;;;2.96;98.48;101718.53;4998302;28;20293;-61
2022/01/25 11:54:54;;;;;;;27.27;20.67;;;;;;;2.82;100.00;101708.31;4990825;28;20205;-60
2022/01/25 11:57:26;;;;;;;23.03;17.83;;;;;;;2.85;100.00;101721.06;4991497;28;20246;-59
2022/01/25 11:59:54;;;;;;;22.00;18.43;;;;;;;2.46;100.00;101719.19;4998890;28;20178;-59
2022/01/25 12:02:41;;;;;;;26.07;19.33;;;;;;;2.50;100.00;101725.97;4990429;28;20233;-59
2022/01/25 12:05:09;;;;;;;23.10;20.03;;;;;;;2.86;100.00;101727.81;4993268;28;20266;-59
2022/01/25 12:07:43;;;;;;;25.03;19.73;;;;;;;2.83;100.00;101724.41;4999289;28;20221;-60
2022/01/25 12:10:54;;;;;;;23.37;19.70;;;;;;;2.82;99.85;101725.28;4980751;28;20265;-61
2022/01/25 12:13:27;;;;;;;23.52;20.48;;;;;;;3.00;98.34;101720.25;4919738;29;21049;-60
2022/01/25 12:16:22;;;;;;;25.45;20.80;;;;;;;2.92;97.28;101718.53;4912427;29;20446;-60
2022/01/25 12:18:57;;;;;;;24.87;19.77;;;;;;;2.26;100.00;101717.38;4918504;29;20322;-61
2022/01/25 12:21:48;;;;;;;27.03;20.00;;;;;;;2.26;100.00;101714.84;4902618;29;20231;-60
2022/01/25 12:24:14;;;;;;;27.23;21.20;;;;;;;2.13;100.00;101716.44;4929281;29;20184;-60
2022/01/25 12:29:38;;;;;;;27.80;19.60;;;;;;;2.39;100.00;101714.09;4927859;29;20196;-60
2022/01/25 12:32:22;;;;;;;24.73;19.43;;;;;;;2.56;100.00;101709.06;4914159;29;20243;-60
2022/01/25 12:35:18;;;;;;;26.60;20.93;;;;;;;2.47;100.00;101718.31;4940085;29;20218;-60
2022/01/25 12:37:43;;;;;;;27.10;20.07;;;;;;;2.73;100.00;101706.59;4948494;29;20222;-59